createdAt,value
2018-03-06T00:01:13.648Z,8.48
2018-03-06T00:03:48.707Z,7.85
2018-03-06T00:06:23.784Z,8.03
2018-03-06T00:08:58.966Z,7.43
2018-03-06T00:11:34.759Z,8.23
2018-03-06T00:14:09.738Z,8.80
2018-03-06T00:16:44.687Z,9.30
2018-03-06T00:19:19.955Z,9.07
2018-03-06T00:21:55.238Z,8.43
2018-03-06T00:24:30.738Z,7.50
2018-03-06T00:27:05.616Z,9.20
2018-03-06T00:29:41.098Z,7.97
2018-03-06T00:32:16.201Z,9.13
2018-03-06T00:34:51.758Z,8.97
2018-03-06T00:37:26.962Z,9.27
2018-03-06T00:40:02.194Z,9.50
2018-03-06T00:42:37.719Z,12.32
2018-03-06T00:45:12.966Z,9.25
2018-03-06T00:47:47.861Z,9.10
2018-03-06T00:50:22.962Z,9.47
2018-03-06T00:52:58.205Z,10.10
2018-03-06T00:55:33.091Z,10.00
2018-03-06T00:58:08.291Z,9.43
2018-03-06T01:00:43.122Z,9.13
2018-03-06T01:03:17.907Z,9.80
2018-03-06T01:05:53.092Z,9.27
2018-03-06T01:08:28.801Z,8.70
2018-03-06T01:11:03.745Z,9.30
2018-03-06T01:13:38.599Z,9.73
2018-03-06T01:16:14.346Z,10.07
2018-03-06T01:18:49.228Z,9.20
2018-03-06T01:21:24.535Z,10.47
2018-03-06T01:23:59.613Z,9.23
2018-03-06T01:26:35.056Z,9.90
2018-03-06T01:29:10.767Z,10.37
2018-03-06T01:31:45.946Z,9.10
2018-03-06T01:34:21.046Z,10.07
2018-03-06T01:36:56.334Z,10.20
2018-03-06T01:39:31.139Z,8.70
2018-03-06T01:42:06.461Z,10.57
2018-03-06T01:44:41.962Z,10.63
2018-03-06T01:47:16.970Z,9.90
2018-03-06T01:49:52.029Z,9.30
2018-03-06T01:52:27.014Z,9.77
2018-03-06T01:55:02.278Z,10.98
2018-03-06T01:57:37.162Z,9.47
2018-03-06T02:00:12.316Z,9.00
2018-03-06T02:02:47.114Z,9.67
2018-03-06T02:05:23.735Z,10.60
2018-03-06T02:07:59.127Z,10.57
2018-03-06T02:10:34.119Z,10.63
2018-03-06T02:13:10.171Z,10.50
2018-03-06T02:15:45.132Z,10.20
2018-03-06T02:18:20.167Z,10.20
2018-03-06T02:20:55.243Z,11.60
2018-03-06T02:23:30.109Z,9.87
2018-03-06T02:26:06.077Z,11.07
2018-03-06T02:28:41.263Z,9.90
2018-03-06T02:31:16.387Z,10.07
2018-03-06T02:33:51.573Z,10.60
2018-03-06T02:36:27.139Z,11.07
2018-03-06T02:39:02.214Z,11.30
2018-03-06T02:41:37.170Z,10.00
2018-03-06T02:44:12.987Z,11.88
2018-03-06T02:46:48.169Z,11.57
2018-03-06T02:49:23.323Z,10.80
2018-03-06T02:51:58.490Z,11.40
2018-03-06T02:54:33.350Z,11.90
2018-03-06T02:57:08.252Z,10.67
2018-03-06T02:59:43.204Z,11.37
2018-03-06T03:02:18.352Z,11.87
2018-03-06T03:04:53.410Z,10.33
2018-03-06T03:07:28.682Z,10.90
2018-03-06T03:10:04.146Z,10.32
2018-03-06T03:12:39.354Z,11.60
2018-03-06T03:15:14.626Z,11.00
2018-03-06T03:17:50.246Z,11.07
2018-03-06T03:20:25.370Z,11.67
2018-03-06T03:23:00.527Z,10.73
2018-03-06T03:25:35.247Z,11.13
2018-03-06T03:28:10.838Z,9.83
2018-03-06T03:30:45.611Z,9.80
2018-03-06T03:33:20.788Z,11.80
2018-03-06T03:35:55.350Z,10.90
2018-03-06T03:38:30.267Z,11.40
2018-03-06T03:41:05.358Z,10.82
2018-03-06T03:43:40.271Z,11.20
2018-03-06T03:46:15.424Z,12.53
2018-03-06T03:48:50.414Z,11.17
2018-03-06T03:51:25.554Z,11.77
2018-03-06T03:54:00.534Z,11.03
2018-03-06T03:56:36.190Z,11.63
2018-03-06T03:59:11.258Z,10.45
2018-03-06T04:01:46.294Z,11.80
2018-03-06T04:04:21.462Z,11.43
2018-03-06T04:06:56.623Z,10.70
2018-03-06T04:09:31.835Z,12.10
2018-03-06T04:12:06.899Z,13.00
2018-03-06T04:14:42.263Z,12.67
2018-03-06T04:17:17.351Z,11.80
2018-03-06T04:19:52.598Z,12.00
2018-03-06T04:22:28.310Z,10.80
2018-03-06T04:25:03.571Z,12.30
2018-03-06T04:27:39.746Z,12.40
2018-03-06T04:30:14.659Z,12.30
2018-03-06T04:32:49.526Z,12.93
2018-03-06T04:35:25.146Z,13.38
2018-03-06T04:38:01.102Z,12.40
2018-03-06T04:40:36.210Z,13.60
2018-03-06T04:43:12.002Z,12.00
2018-03-06T04:45:47.354Z,14.05
2018-03-06T04:48:22.436Z,13.15
2018-03-06T04:50:58.865Z,14.40
2018-03-06T04:53:34.427Z,14.20
2018-03-06T04:56:09.839Z,13.60
2018-03-06T04:58:45.336Z,14.05
2018-03-06T05:01:20.359Z,15.40
2018-03-06T05:03:55.498Z,14.17
2018-03-06T05:06:30.545Z,16.87
2018-03-06T05:09:05.087Z,16.00
2018-03-06T05:11:40.464Z,14.20
2018-03-06T05:14:15.456Z,15.60
2018-03-06T05:16:50.604Z,14.60
2018-03-06T05:19:25.758Z,14.07
2018-03-06T05:22:01.775Z,13.43
2018-03-06T05:24:36.654Z,13.57
2018-03-06T05:27:12.026Z,13.90
2018-03-06T05:29:47.287Z,14.32
2018-03-06T05:32:22.487Z,13.60
2018-03-06T05:34:59.221Z,13.77
2018-03-06T05:37:33.759Z,21.17
2018-03-06T05:40:09.063Z,17.37
2018-03-06T05:42:44.651Z,16.67
2018-03-06T05:45:19.992Z,15.43
2018-03-06T05:47:56.079Z,13.20
2018-03-06T05:50:31.510Z,16.60
2018-03-06T05:53:06.832Z,15.35
2018-03-06T05:55:42.026Z,15.67
2018-03-06T05:58:17.702Z,16.57
2018-03-06T06:00:52.687Z,15.67
2018-03-06T06:03:27.648Z,16.90
2018-03-06T06:06:02.851Z,17.27
2018-03-06T06:08:37.729Z,16.17
2018-03-06T06:11:12.806Z,16.07
2018-03-06T06:13:47.838Z,15.70
2018-03-06T06:16:23.386Z,21.12
2018-03-06T06:18:58.930Z,21.42
2018-03-06T06:21:34.588Z,18.20
2018-03-06T06:24:09.524Z,18.60
2018-03-06T06:26:43.876Z,17.57
2018-03-06T06:29:18.902Z,16.70
2018-03-06T06:31:54.433Z,16.73
2018-03-06T06:34:29.582Z,15.67
2018-03-06T06:37:04.842Z,15.25
2018-03-06T06:39:39.695Z,16.07
2018-03-06T06:42:14.863Z,17.50
2018-03-06T06:44:49.826Z,17.27
2018-03-06T06:47:24.849Z,17.80
2018-03-06T06:49:59.802Z,19.30
2018-03-06T06:52:34.767Z,17.93
2018-03-06T06:55:10.236Z,18.80
2018-03-06T06:57:45.142Z,17.03
2018-03-06T07:00:20.142Z,16.87
2018-03-06T07:02:56.054Z,16.53
2018-03-06T07:05:31.446Z,15.80
2018-03-06T07:08:06.674Z,17.45
2018-03-06T07:10:41.643Z,16.60
2018-03-06T07:13:16.988Z,15.37
2018-03-06T07:15:51.917Z,16.20
2018-03-06T07:18:27.102Z,16.27
2018-03-06T07:21:02.054Z,16.70
2018-03-06T07:23:36.898Z,16.80
2018-03-06T07:26:12.222Z,16.83
2018-03-06T07:28:47.754Z,14.80
2018-03-06T07:31:22.747Z,17.53
2018-03-06T07:33:58.803Z,16.20
2018-03-06T07:36:33.895Z,17.53
2018-03-06T07:39:08.762Z,16.83
2018-03-06T07:41:43.781Z,17.10
2018-03-06T07:44:18.779Z,14.10
2018-03-06T07:46:53.788Z,16.73
2018-03-06T07:49:28.709Z,15.77
2018-03-06T07:52:04.055Z,15.60
2018-03-06T07:54:38.983Z,17.90
2018-03-06T07:57:14.088Z,17.23
2018-03-06T07:59:49.302Z,16.27
2018-03-06T08:02:24.699Z,16.70
2018-03-06T08:04:59.726Z,18.30
2018-03-06T08:07:34.744Z,17.93
2018-03-06T08:10:09.143Z,17.42
2018-03-06T08:12:43.863Z,17.20
2018-03-06T08:15:18.914Z,19.63
2018-03-06T08:17:53.837Z,18.80
2018-03-06T08:20:28.882Z,20.27
2018-03-06T08:23:04.142Z,19.80
2018-03-06T08:25:39.647Z,19.00
2018-03-06T08:28:15.072Z,20.80
2018-03-06T08:30:50.013Z,20.80
2018-03-06T08:33:24.847Z,19.87
2018-03-06T08:35:59.985Z,19.97
2018-03-06T08:38:35.325Z,19.10
2018-03-06T08:41:10.266Z,20.57
2018-03-06T08:43:45.704Z,18.42
2018-03-06T08:46:20.901Z,23.60
2018-03-06T08:48:56.025Z,21.60
2018-03-06T08:51:31.044Z,22.50
2018-03-06T08:54:06.191Z,23.07
2018-03-06T08:56:41.855Z,23.17
2018-03-06T08:59:16.925Z,22.87
2018-03-06T09:01:51.922Z,23.13
2018-03-06T09:04:26.994Z,23.60
2018-03-06T09:07:01.158Z,24.67
2018-03-06T09:09:36.450Z,25.50
2018-03-06T09:12:11.648Z,24.48
2018-03-06T09:14:47.002Z,24.07
2018-03-06T09:17:21.974Z,24.13
2018-03-06T09:19:57.090Z,26.73
2018-03-06T09:22:32.665Z,26.02
2018-03-06T09:25:08.220Z,26.87
2018-03-06T09:27:43.090Z,25.73
2018-03-06T09:30:18.095Z,26.20
2018-03-06T09:32:53.080Z,27.53
2018-03-06T09:35:27.934Z,26.00
2018-03-06T09:38:02.943Z,29.80
2018-03-06T09:40:37.996Z,29.17
2018-03-06T09:43:13.114Z,28.00
2018-03-06T09:45:48.202Z,27.77
2018-03-06T09:48:23.235Z,28.67
2018-03-06T09:50:59.391Z,29.27
2018-03-06T09:53:34.427Z,29.00
2018-03-06T09:56:09.479Z,27.90
2018-03-06T09:58:44.916Z,29.00
2018-03-06T10:01:20.046Z,29.17
2018-03-06T10:03:55.200Z,29.57
2018-03-06T10:06:30.408Z,29.77
2018-03-06T10:09:05.789Z,30.23
2018-03-06T10:11:41.050Z,30.27
2018-03-06T10:14:15.906Z,30.90
2018-03-06T10:16:51.313Z,29.37
2018-03-06T10:19:26.048Z,27.70
2018-03-06T10:22:01.311Z,28.53
2018-03-06T10:24:36.267Z,28.77
2018-03-06T10:27:11.459Z,28.40
2018-03-06T10:29:46.251Z,29.47
2018-03-06T10:32:21.247Z,31.43
2018-03-06T10:34:55.618Z,29.10
2018-03-06T10:37:30.354Z,29.57
2018-03-06T10:40:04.992Z,31.42
2018-03-06T10:42:40.259Z,30.83
2018-03-06T10:45:15.348Z,30.50
2018-03-06T10:47:50.650Z,31.37
2018-03-06T10:50:26.179Z,30.87
2018-03-06T10:53:01.264Z,31.47
2018-03-06T10:55:36.228Z,30.77
2018-03-06T10:58:11.233Z,32.70
2018-03-06T11:00:47.108Z,31.83
2018-03-06T11:03:23.194Z,32.93
2018-03-06T11:05:59.578Z,36.83
2018-03-06T11:08:34.326Z,32.47
2018-03-06T11:11:09.462Z,37.53
2018-03-06T11:13:44.150Z,34.27
2018-03-06T11:16:19.222Z,36.40
2018-03-06T11:18:53.978Z,35.90
2018-03-06T11:21:29.322Z,33.57
2018-03-06T11:24:04.296Z,34.13
2018-03-06T11:26:39.239Z,35.83
2018-03-06T11:29:14.479Z,36.60
2018-03-06T11:31:49.542Z,36.80
2018-03-06T11:34:25.141Z,36.50
2018-03-06T11:37:00.702Z,36.57
2018-03-06T11:39:35.678Z,37.23
2018-03-06T11:42:10.834Z,36.93
2018-03-06T11:44:46.263Z,32.97
2018-03-06T11:47:21.550Z,37.90
2018-03-06T11:49:56.646Z,38.20
2018-03-06T11:52:32.183Z,34.63
2018-03-06T11:55:07.591Z,36.40
2018-03-06T11:57:42.399Z,38.43
2018-03-06T12:00:17.330Z,37.53
2018-03-06T12:02:51.842Z,39.07
2018-03-06T12:05:27.547Z,39.23
2018-03-06T12:08:01.931Z,41.70
2018-03-06T12:10:37.315Z,39.00
2018-03-06T12:13:12.531Z,38.45
2018-03-06T12:15:47.483Z,40.80
2018-03-06T12:18:22.490Z,40.70
2018-03-06T12:20:57.438Z,37.90
2018-03-06T12:23:32.587Z,40.20
2018-03-06T12:26:07.646Z,41.23
2018-03-06T12:28:42.711Z,42.80
2018-03-06T12:31:17.506Z,39.83
2018-03-06T12:33:52.421Z,41.00
2018-03-06T12:36:28.372Z,44.10
2018-03-06T12:39:03.376Z,41.80
2018-03-06T12:41:38.388Z,44.10
2018-03-06T12:44:13.647Z,41.47
2018-03-06T12:46:48.490Z,43.70
2018-03-06T12:49:23.403Z,43.80
2018-03-06T12:51:59.768Z,44.42
2018-03-06T12:54:35.494Z,43.92
2018-03-06T12:57:10.457Z,41.67
2018-03-06T12:59:45.429Z,45.00
2018-03-06T13:02:20.616Z,45.40
2018-03-06T13:04:55.564Z,43.57
2018-03-06T13:07:29.968Z,43.63
2018-03-06T13:10:04.491Z,44.07
2018-03-06T13:12:39.654Z,45.47
2018-03-06T13:15:14.853Z,44.77
2018-03-06T13:17:49.927Z,43.90
2018-03-06T13:20:25.476Z,46.92
2018-03-06T13:23:00.847Z,44.93
2018-03-06T13:25:35.536Z,43.93
2018-03-06T13:28:10.686Z,45.40
2018-03-06T13:30:45.693Z,44.90
2018-03-06T13:33:20.702Z,38.60
2018-03-06T13:35:55.072Z,46.63
2018-03-06T13:38:30.074Z,41.13
2018-03-06T13:41:05.040Z,43.30
2018-03-06T13:43:40.406Z,41.08
2018-03-06T13:46:15.366Z,43.10
2018-03-06T13:48:50.335Z,41.57
2018-03-06T13:51:25.731Z,41.33
2018-03-06T13:54:01.086Z,41.40
2018-03-06T13:56:36.398Z,40.87
2018-03-06T13:59:11.882Z,42.27
2018-03-06T14:01:46.842Z,40.70
2018-03-06T14:04:21.906Z,41.23
2018-03-06T14:06:56.897Z,41.93
2018-03-06T14:09:32.034Z,41.70
2018-03-06T14:12:07.014Z,41.97
2018-03-06T14:14:42.594Z,42.03
2018-03-06T14:17:17.538Z,42.17
2018-03-06T14:19:52.606Z,43.57
2018-03-06T14:22:27.532Z,42.60
2018-03-06T14:25:02.236Z,40.73
2018-03-06T14:27:37.698Z,41.40
2018-03-06T14:30:12.813Z,41.85
2018-03-06T14:32:47.865Z,41.20
2018-03-06T14:35:23.047Z,38.33
2018-03-06T14:37:59.615Z,37.55
2018-03-06T14:40:34.182Z,40.13
2018-03-06T14:43:08.850Z,40.00
2018-03-06T14:45:43.761Z,41.40
2018-03-06T14:48:18.850Z,39.20
2018-03-06T14:50:53.675Z,38.80
2018-03-06T14:53:28.730Z,39.20
2018-03-06T14:56:03.740Z,36.60
2018-03-06T14:58:38.686Z,37.30
2018-03-06T15:01:14.009Z,42.65
2018-03-06T15:03:48.987Z,38.10
2018-03-06T15:06:24.203Z,39.17
2018-03-06T15:09:00.223Z,39.55
2018-03-06T15:11:35.214Z,41.10
2018-03-06T15:14:10.219Z,41.10
2018-03-06T15:16:44.847Z,37.40
2018-03-06T15:19:19.852Z,38.40
2018-03-06T15:21:55.244Z,40.67
2018-03-06T15:24:30.231Z,41.13
2018-03-06T15:27:04.911Z,41.37
2018-03-06T15:29:39.927Z,40.60
2018-03-06T15:32:15.126Z,41.20
2018-03-06T15:34:50.275Z,42.60
2018-03-06T15:37:25.667Z,40.63
2018-03-06T15:40:00.810Z,42.90
2018-03-06T15:42:35.937Z,45.10
2018-03-06T15:45:11.089Z,45.17
2018-03-06T15:47:45.822Z,45.00
2018-03-06T15:50:20.939Z,45.57
2018-03-06T15:52:56.022Z,42.97
2018-03-06T15:55:30.834Z,40.20
2018-03-06T15:58:06.097Z,44.88
2018-03-06T16:00:41.275Z,46.33
2018-03-06T16:03:16.286Z,45.30
2018-03-06T16:05:51.865Z,43.60
2018-03-06T16:08:26.735Z,45.30
2018-03-06T16:11:01.233Z,46.13
2018-03-06T16:13:36.110Z,43.50
2018-03-06T16:16:10.446Z,46.83
2018-03-06T16:18:45.599Z,44.27
2018-03-06T16:21:20.613Z,48.37
2018-03-06T16:23:55.838Z,44.30
2018-03-06T16:26:30.889Z,46.10
2018-03-06T16:29:06.155Z,46.37
2018-03-06T16:31:40.964Z,47.93
2018-03-06T16:34:16.242Z,44.60
2018-03-06T16:36:51.328Z,47.70
2018-03-06T16:39:26.388Z,46.73
2018-03-06T16:42:01.494Z,44.93
2018-03-06T16:44:37.137Z,45.03
2018-03-06T16:47:12.666Z,44.80
2018-03-06T16:49:47.240Z,46.20
2018-03-06T16:52:22.811Z,51.85
2018-03-06T16:54:58.076Z,52.62
2018-03-06T16:57:33.086Z,65.23
2018-03-06T17:00:08.162Z,69.80
2018-03-06T17:02:43.046Z,52.50
2018-03-06T17:05:17.934Z,51.97
2018-03-06T17:07:53.027Z,49.67
2018-03-06T17:10:28.202Z,45.63
2018-03-06T17:13:03.675Z,48.07
2018-03-06T17:15:39.022Z,46.90
2018-03-06T17:18:14.362Z,45.12
2018-03-06T17:20:49.242Z,45.10
2018-03-06T17:23:24.455Z,46.90
2018-03-06T17:26:00.579Z,45.35
2018-03-06T17:28:36.065Z,44.50
2018-03-06T17:31:11.067Z,44.20
2018-03-06T17:33:45.522Z,43.30
2018-03-06T17:36:20.462Z,44.13
2018-03-06T17:38:55.628Z,45.77
2018-03-06T17:41:31.047Z,45.80
2018-03-06T17:44:06.038Z,46.87
2018-03-06T17:46:41.105Z,46.17
2018-03-06T17:49:16.439Z,46.80
2018-03-06T17:51:52.538Z,46.30
2018-03-06T17:54:28.234Z,46.17
2018-03-06T17:57:03.031Z,48.03
2018-03-06T17:59:37.626Z,47.13
2018-03-06T18:02:13.078Z,47.92
2018-03-06T18:04:48.108Z,48.40
2018-03-06T18:07:23.138Z,49.50
2018-03-06T18:09:58.354Z,49.10
2018-03-06T18:12:33.631Z,45.40
2018-03-06T18:15:08.312Z,47.65
2018-03-06T18:17:43.327Z,45.60
2018-03-06T18:20:19.102Z,45.63
2018-03-06T18:22:54.290Z,47.70
2018-03-06T18:25:29.269Z,49.40
2018-03-06T18:28:04.221Z,48.50
2018-03-06T18:30:39.235Z,45.30
2018-03-06T18:33:13.500Z,47.20
2018-03-06T18:35:48.751Z,49.00
2018-03-06T18:38:23.650Z,47.50
2018-03-06T18:40:58.370Z,51.70
2018-03-06T18:43:33.502Z,50.90
2018-03-06T18:46:08.534Z,48.22
2018-03-06T18:48:43.575Z,49.60
2018-03-06T18:51:18.270Z,48.27
2018-03-06T18:53:53.403Z,47.67
2018-03-06T18:56:28.468Z,50.17
2018-03-06T18:59:03.716Z,50.80
2018-03-06T19:02:15.547Z,50.30
2018-03-06T19:05:01.752Z,50.70
2018-03-06T19:07:36.645Z,47.23
2018-03-06T19:10:12.343Z,50.50
2018-03-06T19:12:46.815Z,47.60
2018-03-06T19:15:22.267Z,53.33
2018-03-06T19:17:57.825Z,52.62
2018-03-06T19:20:33.388Z,51.30
2018-03-06T19:23:08.397Z,50.97
2018-03-06T19:25:43.067Z,48.80
2018-03-06T19:28:18.744Z,52.55
2018-03-06T19:30:53.892Z,48.20
2018-03-06T19:33:28.942Z,48.50
2018-03-06T19:36:03.635Z,48.00
2018-03-06T19:38:38.377Z,48.70
2018-03-06T19:41:13.681Z,49.45
2018-03-06T19:43:48.418Z,49.23
2018-03-06T19:46:23.656Z,53.27
2018-03-06T19:48:58.676Z,51.70
2018-03-06T19:51:33.858Z,53.63
2018-03-06T19:54:08.843Z,50.50
2018-03-06T19:56:44.309Z,49.95
2018-03-06T19:59:19.546Z,52.30
2018-03-06T20:01:54.618Z,51.47
2018-03-06T20:04:29.022Z,48.97
2018-03-06T20:07:04.770Z,50.35
2018-03-06T20:09:40.062Z,51.90
2018-03-06T20:12:15.055Z,51.13
2018-03-06T20:14:55.884Z,53.40
2018-03-06T20:17:30.241Z,53.67
2018-03-06T20:20:05.543Z,54.40
2018-03-06T20:22:40.604Z,52.80
2018-03-06T20:25:21.123Z,49.67
2018-03-06T20:27:55.646Z,52.00
2018-03-06T20:30:36.215Z,52.10
2018-03-06T20:33:16.591Z,52.35
2018-03-06T20:35:51.490Z,51.53
2018-03-06T20:38:31.941Z,47.57
2018-03-06T20:41:07.602Z,48.65
2018-03-06T20:43:42.328Z,50.53
2018-03-06T20:46:23.177Z,48.80
2018-03-06T20:48:57.914Z,48.17
2018-03-06T20:51:33.122Z,46.67
2018-03-06T20:54:13.406Z,46.60
2018-03-06T20:56:48.060Z,48.47
2018-03-06T20:59:22.544Z,49.43
2018-03-06T21:01:57.782Z,48.30
2018-03-06T21:04:33.410Z,49.65
2018-03-06T21:07:08.682Z,48.45
2018-03-06T21:09:43.690Z,47.30
2018-03-06T21:12:18.786Z,48.13
2018-03-06T21:14:53.635Z,48.97
2018-03-06T21:17:28.800Z,48.80
2018-03-06T21:20:03.903Z,46.97
2018-03-06T21:22:39.068Z,47.73
2018-03-06T21:25:13.847Z,44.87
2018-03-06T21:27:48.890Z,46.50
2018-03-06T21:30:23.763Z,45.70
2018-03-06T21:32:58.798Z,46.10
2018-03-06T21:35:33.654Z,45.00
2018-03-06T21:38:08.875Z,46.93
2018-03-06T21:40:43.634Z,47.93
2018-03-06T21:43:18.760Z,48.53
2018-03-06T21:45:53.199Z,43.80
2018-03-06T21:48:28.186Z,49.00
2018-03-06T21:51:03.495Z,48.47
2018-03-06T21:53:38.771Z,47.40
2018-03-06T21:56:13.895Z,46.70
2018-03-06T21:58:48.868Z,47.37
2018-03-06T22:01:23.911Z,51.53
2018-03-06T22:03:58.250Z,51.73
2018-03-06T22:06:32.822Z,50.10
2018-03-06T22:09:07.787Z,46.17
2018-03-06T22:11:43.162Z,44.83
2018-03-06T22:14:18.626Z,46.20
2018-03-06T22:16:53.762Z,45.97
2018-03-06T22:19:28.720Z,48.00
2018-03-06T22:22:04.205Z,47.13
2018-03-06T22:24:39.046Z,46.37
2018-03-06T22:27:14.112Z,48.07
2018-03-06T22:29:48.935Z,45.33
2018-03-06T22:32:24.555Z,46.25
2018-03-06T22:35:01.066Z,48.25
2018-03-06T22:37:35.915Z,45.70
2018-03-06T22:40:11.867Z,48.35
2018-03-06T22:42:46.870Z,44.30
2018-03-06T22:45:21.931Z,46.80
2018-03-06T22:47:56.744Z,46.80
2018-03-06T22:50:31.879Z,44.33
2018-03-06T22:53:07.120Z,45.23
2018-03-06T22:55:42.150Z,47.33
2018-03-06T22:58:16.754Z,44.43
2018-03-06T23:00:52.606Z,44.27
2018-03-06T23:03:27.979Z,46.57
2018-03-06T23:06:02.851Z,46.17
2018-03-06T23:08:37.837Z,44.87
2018-03-06T23:11:14.043Z,44.10
2018-03-06T23:13:49.000Z,44.23
2018-03-06T23:16:23.795Z,47.40
2018-03-06T23:18:58.243Z,46.43
2018-03-06T23:21:33.386Z,49.73
2018-03-06T23:24:08.214Z,47.97
2018-03-06T23:26:43.758Z,47.08
2018-03-06T23:29:19.121Z,46.60
2018-03-06T23:31:54.222Z,46.60
2018-03-06T23:34:29.047Z,45.17
2018-03-06T23:37:04.443Z,46.13
2018-03-06T23:39:39.320Z,46.93
2018-03-06T23:42:14.492Z,48.17
2018-03-06T23:44:49.698Z,48.60
2018-03-06T23:47:24.221Z,46.00
2018-03-06T23:49:59.398Z,46.20
2018-03-06T23:52:34.861Z,48.80
2018-03-06T23:55:10.239Z,46.23
2018-03-06T23:57:45.214Z,47.93
